sensor_id;sensor_type;location;lat;lon;timestamp;temperature;humidity
22161;DHT22;49035;48.812;11.762;2023-09-19T00:01:40;13.50;99.90
22161;DHT22;49035;48.812;11.762;2023-09-19T00:04:09;13.40;99.90
22161;DHT22;49035;48.812;11.762;2023-09-19T00:06:36;13.30;99.90
22161;DHT22;49035;48.812;11.762;2023-09-19T00:09:03;13.20;99.90
22161;DHT22;49035;48.812;11.762;2023-09-19T00:11:28;13.10;99.90
22161;DHT22;49035;48.812;11.762;2023-09-19T00:13:54;13.00;99.90
22161;DHT22;49035;48.812;11.762;2023-09-19T00:16:20;13.10;99.90
22161;DHT22;49035;48.812;11.762;2023-09-19T00:18:46;13.10;99.90
22161;DHT22;49035;48.812;11.762;2023-09-19T00:21:12;13.20;99.90
22161;DHT22;49035;48.812;11.762;2023-09-19T00:23:38;13.10;99.90
22161;DHT22;49035;48.812;11.762;2023-09-19T00:26:06;13.10;99.90
22161;DHT22;49035;48.812;11.762;2023-09-19T00:28:32;13.00;99.90
22161;DHT22;49035;48.812;11.762;2023-09-19T00:30:57;13.00;99.90
22161;DHT22;49035;48.812;11.762;2023-09-19T00:33:26;12.90;99.90
22161;DHT22;49035;48.812;11.762;2023-09-19T00:35:53;12.90;99.90
22161;DHT22;49035;48.812;11.762;2023-09-19T00:38:21;12.90;99.90
22161;DHT22;49035;48.812;11.762;2023-09-19T00:40:49;12.90;99.90
22161;DHT22;49035;48.812;11.762;2023-09-19T00:43:16;12.90;99.90
22161;DHT22;49035;48.812;11.762;2023-09-19T00:45:47;13.00;99.90
22161;DHT22;49035;48.812;11.762;2023-09-19T00:48:14;13.00;99.90
22161;DHT22;49035;48.812;11.762;2023-09-19T00:50:42;13.20;99.90
22161;DHT22;49035;48.812;11.762;2023-09-19T00:53:09;13.20;99.90
22161;DHT22;49035;48.812;11.762;2023-09-19T00:55:36;13.30;99.90
22161;DHT22;49035;48.812;11.762;2023-09-19T00:58:03;13.40;99.90
22161;DHT22;49035;48.812;11.762;2023-09-19T01:00:29;13.50;99.90
22161;DHT22;49035;48.812;11.762;2023-09-19T01:02:54;13.50;99.90
22161;DHT22;49035;48.812;11.762;2023-09-19T01:05:21;13.50;99.90
22161;DHT22;49035;48.812;11.762;2023-09-19T01:07:46;13.50;99.90
22161;DHT22;49035;48.812;11.762;2023-09-19T01:10:17;13.50;99.90
22161;DHT22;49035;48.812;11.762;2023-09-19T01:12:55;13.50;99.90
22161;DHT22;49035;48.812;11.762;2023-09-19T01:15:31;13.50;99.90
22161;DHT22;49035;48.812;11.762;2023-09-19T01:20:45;13.60;99.90
22161;DHT22;49035;48.812;11.762;2023-09-19T01:23:28;13.60;99.90
22161;DHT22;49035;48.812;11.762;2023-09-19T01:31:24;13.70;99.90
22161;DHT22;49035;48.812;11.762;2023-09-19T01:34:00;13.70;99.90
22161;DHT22;49035;48.812;11.762;2023-09-19T01:36:28;13.80;99.90
22161;DHT22;49035;48.812;11.762;2023-09-19T01:38:55;13.90;99.90
22161;DHT22;49035;48.812;11.762;2023-09-19T01:41:41;13.90;99.90
22161;DHT22;49035;48.812;11.762;2023-09-19T01:44:15;13.90;99.90
22161;DHT22;49035;48.812;11.762;2023-09-19T01:46:44;14.00;99.90
22161;DHT22;49035;48.812;11.762;2023-09-19T01:49:25;14.00;99.90
22161;DHT22;49035;48.812;11.762;2023-09-19T01:52:10;14.10;99.90
22161;DHT22;49035;48.812;11.762;2023-09-19T01:54:46;14.20;99.90
22161;DHT22;49035;48.812;11.762;2023-09-19T01:57:28;14.20;99.90
22161;DHT22;49035;48.812;11.762;2023-09-19T02:00:02;14.30;99.90
22161;DHT22;49035;48.812;11.762;2023-09-19T02:02:36;14.30;99.90
22161;DHT22;49035;48.812;11.762;2023-09-19T02:05:04;14.40;99.90
22161;DHT22;49035;48.812;11.762;2023-09-19T02:07:30;14.40;99.90
22161;DHT22;49035;48.812;11.762;2023-09-19T02:09:59;14.50;99.90
22161;DHT22;49035;48.812;11.762;2023-09-19T02:12:26;14.60;99.90
22161;DHT22;49035;48.812;11.762;2023-09-19T02:14:51;14.70;99.90
22161;DHT22;49035;48.812;11.762;2023-09-19T02:17:17;14.70;99.90
22161;DHT22;49035;48.812;11.762;2023-09-19T02:19:42;14.70;99.90
22161;DHT22;49035;48.812;11.762;2023-09-19T02:22:08;14.70;99.90
22161;DHT22;49035;48.812;11.762;2023-09-19T02:24:38;14.80;99.90
22161;DHT22;49035;48.812;11.762;2023-09-19T02:27:04;14.70;99.90
22161;DHT22;49035;48.812;11.762;2023-09-19T02:29:30;14.80;99.90
22161;DHT22;49035;48.812;11.762;2023-09-19T02:31:56;14.80;99.90
22161;DHT22;49035;48.812;11.762;2023-09-19T02:34:22;14.70;99.90
22161;DHT22;49035;48.812;11.762;2023-09-19T02:36:48;14.70;99.90
22161;DHT22;49035;48.812;11.762;2023-09-19T02:39:13;14.70;99.90
22161;DHT22;49035;48.812;11.762;2023-09-19T02:41:39;14.80;99.90
22161;DHT22;49035;48.812;11.762;2023-09-19T02:44:07;14.80;99.90
22161;DHT22;49035;48.812;11.762;2023-09-19T02:46:33;14.80;99.90
22161;DHT22;49035;48.812;11.762;2023-09-19T02:48:59;14.80;99.90
22161;DHT22;49035;48.812;11.762;2023-09-19T02:51:25;14.80;99.90
22161;DHT22;49035;48.812;11.762;2023-09-19T02:53:51;14.80;99.90
22161;DHT22;49035;48.812;11.762;2023-09-19T02:56:20;14.80;99.90
22161;DHT22;49035;48.812;11.762;2023-09-19T02:58:45;14.80;99.90
22161;DHT22;49035;48.812;11.762;2023-09-19T03:01:11;14.80;99.90
22161;DHT22;49035;48.812;11.762;2023-09-19T03:03:37;14.80;99.90
22161;DHT22;49035;48.812;11.762;2023-09-19T03:06:05;14.80;99.90
22161;DHT22;49035;48.812;11.762;2023-09-19T03:08:31;14.80;99.90
22161;DHT22;49035;48.812;11.762;2023-09-19T03:11:03;14.80;99.90
22161;DHT22;49035;48.812;11.762;2023-09-19T03:13:31;14.80;99.90
22161;DHT22;49035;48.812;11.762;2023-09-19T03:15:57;14.80;99.90
22161;DHT22;49035;48.812;11.762;2023-09-19T03:18:24;14.80;99.90
22161;DHT22;49035;48.812;11.762;2023-09-19T03:20:55;14.70;99.90
22161;DHT22;49035;48.812;11.762;2023-09-19T03:23:22;14.70;99.90
22161;DHT22;49035;48.812;11.762;2023-09-19T03:25:48;14.70;99.90
22161;DHT22;49035;48.812;11.762;2023-09-19T03:28:14;14.70;99.90
22161;DHT22;49035;48.812;11.762;2023-09-19T03:30:41;14.70;99.90
22161;DHT22;49035;48.812;11.762;2023-09-19T03:33:07;14.60;99.90
22161;DHT22;49035;48.812;11.762;2023-09-19T03:35:33;14.60;99.90
22161;DHT22;49035;48.812;11.762;2023-09-19T03:38:00;14.70;99.90
22161;DHT22;49035;48.812;11.762;2023-09-19T03:40:25;14.60;99.90
22161;DHT22;49035;48.812;11.762;2023-09-19T03:42:51;14.60;99.90
22161;DHT22;49035;48.812;11.762;2023-09-19T03:45:17;14.70;99.90
22161;DHT22;49035;48.812;11.762;2023-09-19T03:47:43;14.70;99.90
22161;DHT22;49035;48.812;11.762;2023-09-19T03:50:09;14.70;99.90
22161;DHT22;49035;48.812;11.762;2023-09-19T03:52:40;14.70;99.90
22161;DHT22;49035;48.812;11.762;2023-09-19T03:55:06;14.70;99.90
22161;DHT22;49035;48.812;11.762;2023-09-19T03:57:32;14.70;99.90
22161;DHT22;49035;48.812;11.762;2023-09-19T03:59:57;14.70;99.90
22161;DHT22;49035;48.812;11.762;2023-09-19T04:02:23;14.80;99.90
22161;DHT22;49035;48.812;11.762;2023-09-19T04:04:53;14.80;99.90
22161;DHT22;49035;48.812;11.762;2023-09-19T04:07:19;14.80;99.90
22161;DHT22;49035;48.812;11.762;2023-09-19T04:09:47;14.80;99.90
22161;DHT22;49035;48.812;11.762;2023-09-19T04:12:14;14.80;99.90
22161;DHT22;49035;48.812;11.762;2023-09-19T04:14:42;14.80;99.90
22161;DHT22;49035;48.812;11.762;2023-09-19T04:17:08;14.70;99.90
22161;DHT22;49035;48.812;11.762;2023-09-19T04:19:33;14.70;99.90
22161;DHT22;49035;48.812;11.762;2023-09-19T04:21:59;14.70;99.90
22161;DHT22;49035;48.812;11.762;2023-09-19T04:24:24;14.70;99.90
22161;DHT22;49035;48.812;11.762;2023-09-19T04:26:50;14.60;99.90
22161;DHT22;49035;48.812;11.762;2023-09-19T04:29:15;14.60;99.90
22161;DHT22;49035;48.812;11.762;2023-09-19T04:31:41;14.60;99.90
22161;DHT22;49035;48.812;11.762;2023-09-19T04:34:10;14.60;99.90
22161;DHT22;49035;48.812;11.762;2023-09-19T04:36:39;14.60;99.90
22161;DHT22;49035;48.812;11.762;2023-09-19T04:39:05;14.60;99.90
22161;DHT22;49035;48.812;11.762;2023-09-19T04:41:31;14.70;99.90
22161;DHT22;49035;48.812;11.762;2023-09-19T04:43:56;14.60;99.90
22161;DHT22;49035;48.812;11.762;2023-09-19T04:46:22;14.60;99.90
22161;DHT22;49035;48.812;11.762;2023-09-19T04:48:47;14.70;99.90
22161;DHT22;49035;48.812;11.762;2023-09-19T04:51:13;14.70;99.90
22161;DHT22;49035;48.812;11.762;2023-09-19T04:53:40;14.80;99.90
22161;DHT22;49035;48.812;11.762;2023-09-19T04:56:06;14.80;99.90
22161;DHT22;49035;48.812;11.762;2023-09-19T04:58:33;14.90;99.90
22161;DHT22;49035;48.812;11.762;2023-09-19T05:00:59;15.00;99.90
22161;DHT22;49035;48.812;11.762;2023-09-19T05:03:25;15.00;99.90
22161;DHT22;49035;48.812;11.762;2023-09-19T05:05:50;15.10;99.90
22161;DHT22;49035;48.812;11.762;2023-09-19T05:08:16;15.20;99.90
22161;DHT22;49035;48.812;11.762;2023-09-19T05:10:41;15.20;99.90
22161;DHT22;49035;48.812;11.762;2023-09-19T05:13:07;15.20;99.90
22161;DHT22;49035;48.812;11.762;2023-09-19T05:15:33;15.20;99.90
22161;DHT22;49035;48.812;11.762;2023-09-19T05:18:01;15.30;99.90
22161;DHT22;49035;48.812;11.762;2023-09-19T05:20:26;15.40;99.90
22161;DHT22;49035;48.812;11.762;2023-09-19T05:23:05;15.40;99.90
22161;DHT22;49035;48.812;11.762;2023-09-19T05:25:35;15.40;99.90
22161;DHT22;49035;48.812;11.762;2023-09-19T05:28:08;15.40;99.90
22161;DHT22;49035;48.812;11.762;2023-09-19T05:30:36;15.40;99.90
22161;DHT22;49035;48.812;11.762;2023-09-19T05:33:02;15.40;99.90
22161;DHT22;49035;48.812;11.762;2023-09-19T05:35:29;15.40;99.90
22161;DHT22;49035;48.812;11.762;2023-09-19T05:37:56;15.40;99.90
22161;DHT22;49035;48.812;11.762;2023-09-19T05:40:24;15.30;99.90
22161;DHT22;49035;48.812;11.762;2023-09-19T05:42:50;15.30;99.90
22161;DHT22;49035;48.812;11.762;2023-09-19T05:45:16;15.20;99.90
22161;DHT22;49035;48.812;11.762;2023-09-19T05:47:52;15.10;99.90
22161;DHT22;49035;48.812;11.762;2023-09-19T05:50:21;15.00;99.90
22161;DHT22;49035;48.812;11.762;2023-09-19T05:52:53;15.00;99.90
22161;DHT22;49035;48.812;11.762;2023-09-19T05:55:24;14.90;99.90
22161;DHT22;49035;48.812;11.762;2023-09-19T05:57:53;14.80;99.90
22161;DHT22;49035;48.812;11.762;2023-09-19T06:00:20;14.80;99.90
22161;DHT22;49035;48.812;11.762;2023-09-19T06:02:57;14.70;99.90
22161;DHT22;49035;48.812;11.762;2023-09-19T06:05:24;14.80;99.90
22161;DHT22;49035;48.812;11.762;2023-09-19T06:07:52;15.20;99.90
22161;DHT22;49035;48.812;11.762;2023-09-19T06:10:18;15.50;99.90
22161;DHT22;49035;48.812;11.762;2023-09-19T06:12:46;15.80;99.90
22161;DHT22;49035;48.812;11.762;2023-09-19T06:15:12;16.10;99.90
22161;DHT22;49035;48.812;11.762;2023-09-19T06:17:48;16.30;99.90
22161;DHT22;49035;48.812;11.762;2023-09-19T06:20:14;16.60;99.90
22161;DHT22;49035;48.812;11.762;2023-09-19T06:22:41;16.80;99.90
22161;DHT22;49035;48.812;11.762;2023-09-19T06:25:08;16.90;99.90
22161;DHT22;49035;48.812;11.762;2023-09-19T06:27:36;17.00;99.90
22161;DHT22;49035;48.812;11.762;2023-09-19T06:30:02;17.00;99.90
22161;DHT22;49035;48.812;11.762;2023-09-19T06:32:28;17.30;99.90
22161;DHT22;49035;48.812;11.762;2023-09-19T06:34:54;17.60;99.90
22161;DHT22;49035;48.812;11.762;2023-09-19T06:37:20;17.60;99.90
22161;DHT22;49035;48.812;11.762;2023-09-19T06:39:47;17.60;99.90
22161;DHT22;49035;48.812;11.762;2023-09-19T06:42:15;17.70;99.90
22161;DHT22;49035;48.812;11.762;2023-09-19T06:44:43;17.80;99.90
22161;DHT22;49035;48.812;11.762;2023-09-19T06:47:08;17.80;99.90
22161;DHT22;49035;48.812;11.762;2023-09-19T06:49:35;17.90;99.90
22161;DHT22;49035;48.812;11.762;2023-09-19T06:52:01;17.80;99.90
22161;DHT22;49035;48.812;11.762;2023-09-19T06:54:27;17.70;99.90
22161;DHT22;49035;48.812;11.762;2023-09-19T06:56:58;17.70;99.90
22161;DHT22;49035;48.812;11.762;2023-09-19T06:59:24;17.70;99.90
22161;DHT22;49035;48.812;11.762;2023-09-19T07:01:50;17.80;99.90
22161;DHT22;49035;48.812;11.762;2023-09-19T07:04:17;18.00;99.90
22161;DHT22;49035;48.812;11.762;2023-09-19T07:06:51;18.20;99.90
22161;DHT22;49035;48.812;11.762;2023-09-19T07:09:17;18.40;99.90
22161;DHT22;49035;48.812;11.762;2023-09-19T07:11:43;18.50;99.90
22161;DHT22;49035;48.812;11.762;2023-09-19T07:14:08;18.50;99.90
22161;DHT22;49035;48.812;11.762;2023-09-19T07:16:37;18.70;99.90
22161;DHT22;49035;48.812;11.762;2023-09-19T07:19:04;18.90;99.90
22161;DHT22;49035;48.812;11.762;2023-09-19T07:21:29;19.00;99.90
22161;DHT22;49035;48.812;11.762;2023-09-19T07:23:55;19.10;99.90
22161;DHT22;49035;48.812;11.762;2023-09-19T07:26:21;19.20;99.90
22161;DHT22;49035;48.812;11.762;2023-09-19T07:28:46;19.30;99.90
22161;DHT22;49035;48.812;11.762;2023-09-19T07:31:12;19.50;99.90
22161;DHT22;49035;48.812;11.762;2023-09-19T07:33:39;19.80;99.90
22161;DHT22;49035;48.812;11.762;2023-09-19T07:36:05;20.30;99.90
22161;DHT22;49035;48.812;11.762;2023-09-19T07:38:31;20.70;99.90
22161;DHT22;49035;48.812;11.762;2023-09-19T07:41:01;20.70;99.90
22161;DHT22;49035;48.812;11.762;2023-09-19T07:43:27;20.50;99.90
22161;DHT22;49035;48.812;11.762;2023-09-19T07:45:53;20.20;99.90
22161;DHT22;49035;48.812;11.762;2023-09-19T07:48:19;19.90;99.90
22161;DHT22;49035;48.812;11.762;2023-09-19T07:50:44;20.00;99.90
22161;DHT22;49035;48.812;11.762;2023-09-19T07:53:10;20.10;99.90
22161;DHT22;49035;48.812;11.762;2023-09-19T07:55:39;20.60;99.90
22161;DHT22;49035;48.812;11.762;2023-09-19T07:58:06;21.30;99.90
22161;DHT22;49035;48.812;11.762;2023-09-19T08:00:32;21.90;99.90
22161;DHT22;49035;48.812;11.762;2023-09-19T08:03:00;22.20;99.90
22161;DHT22;49035;48.812;11.762;2023-09-19T08:05:26;22.20;99.90
22161;DHT22;49035;48.812;11.762;2023-09-19T08:07:52;22.10;99.90
22161;DHT22;49035;48.812;11.762;2023-09-19T08:10:19;21.90;99.90
22161;DHT22;49035;48.812;11.762;2023-09-19T08:12:47;21.60;99.90
22161;DHT22;49035;48.812;11.762;2023-09-19T08:15:18;21.70;99.90
22161;DHT22;49035;48.812;11.762;2023-09-19T08:17:49;21.90;99.90
22161;DHT22;49035;48.812;11.762;2023-09-19T08:20:15;22.20;99.90
22161;DHT22;49035;48.812;11.762;2023-09-19T08:22:49;22.60;99.90
22161;DHT22;49035;48.812;11.762;2023-09-19T08:25:17;22.80;99.90
22161;DHT22;49035;48.812;11.762;2023-09-19T08:27:44;22.80;99.90
22161;DHT22;49035;48.812;11.762;2023-09-19T08:30:14;23.20;99.90
22161;DHT22;49035;48.812;11.762;2023-09-19T08:32:40;23.50;99.90
22161;DHT22;49035;48.812;11.762;2023-09-19T08:35:08;23.40;99.90
22161;DHT22;49035;48.812;11.762;2023-09-19T08:37:35;23.30;99.90
22161;DHT22;49035;48.812;11.762;2023-09-19T08:40:00;23.20;99.90
22161;DHT22;49035;48.812;11.762;2023-09-19T08:42:26;22.80;99.90
22161;DHT22;49035;48.812;11.762;2023-09-19T08:44:52;22.60;99.90
22161;DHT22;49035;48.812;11.762;2023-09-19T08:47:33;22.50;99.90
22161;DHT22;49035;48.812;11.762;2023-09-19T08:50:07;22.60;99.90
22161;DHT22;49035;48.812;11.762;2023-09-19T08:52:43;21.70;99.90
22161;DHT22;49035;48.812;11.762;2023-09-19T08:55:12;21.20;99.90
22161;DHT22;49035;48.812;11.762;2023-09-19T08:57:39;20.90;99.90
22161;DHT22;49035;48.812;11.762;2023-09-19T09:00:08;20.80;99.90
22161;DHT22;49035;48.812;11.762;2023-09-19T09:02:39;20.50;99.90
22161;DHT22;49035;48.812;11.762;2023-09-19T09:05:24;20.10;99.90
22161;DHT22;49035;48.812;11.762;2023-09-19T09:07:52;19.90;99.90
22161;DHT22;49035;48.812;11.762;2023-09-19T09:10:28;19.50;99.90
22161;DHT22;49035;48.812;11.762;2023-09-19T09:12:58;18.90;99.90
22161;DHT22;49035;48.812;11.762;2023-09-19T09:15:24;17.80;99.90
22161;DHT22;49035;48.812;11.762;2023-09-19T09:17:51;17.00;99.90
22161;DHT22;49035;48.812;11.762;2023-09-19T09:20:19;16.50;99.90
22161;DHT22;49035;48.812;11.762;2023-09-19T09:22:55;16.20;99.90
22161;DHT22;49035;48.812;11.762;2023-09-19T09:25:52;15.90;99.90
22161;DHT22;49035;48.812;11.762;2023-09-19T09:29:06;15.90;99.90
22161;DHT22;49035;48.812;11.762;2023-09-19T09:31:32;15.80;99.90
22161;DHT22;49035;48.812;11.762;2023-09-19T09:34:07;15.80;99.90
22161;DHT22;49035;48.812;11.762;2023-09-19T09:36:39;15.80;99.90
22161;DHT22;49035;48.812;11.762;2023-09-19T09:39:10;15.80;99.90
22161;DHT22;49035;48.812;11.762;2023-09-19T09:41:53;15.60;99.90
22161;DHT22;49035;48.812;11.762;2023-09-19T09:44:19;15.50;99.90
22161;DHT22;49035;48.812;11.762;2023-09-19T09:46:47;15.50;99.90
22161;DHT22;49035;48.812;11.762;2023-09-19T09:49:37;15.60;99.90
22161;DHT22;49035;48.812;11.762;2023-09-19T09:52:26;15.70;99.90
22161;DHT22;49035;48.812;11.762;2023-09-19T09:55:13;16.00;99.90
22161;DHT22;49035;48.812;11.762;2023-09-19T09:57:39;16.10;99.90
22161;DHT22;49035;48.812;11.762;2023-09-19T10:00:07;16.30;99.90
22161;DHT22;49035;48.812;11.762;2023-09-19T10:02:45;16.40;99.90
22161;DHT22;49035;48.812;11.762;2023-09-19T10:05:17;16.50;99.90
22161;DHT22;49035;48.812;11.762;2023-09-19T10:07:47;16.70;99.90
22161;DHT22;49035;48.812;11.762;2023-09-19T10:10:42;16.90;99.90
22161;DHT22;49035;48.812;11.762;2023-09-19T10:13:10;17.00;99.90
22161;DHT22;49035;48.812;11.762;2023-09-19T10:15:39;17.00;99.90
22161;DHT22;49035;48.812;11.762;2023-09-19T10:18:20;17.00;99.90
22161;DHT22;49035;48.812;11.762;2023-09-19T10:20:47;17.00;99.90
22161;DHT22;49035;48.812;11.762;2023-09-19T10:23:17;17.10;99.90
22161;DHT22;49035;48.812;11.762;2023-09-19T10:25:48;16.90;99.90
22161;DHT22;49035;48.812;11.762;2023-09-19T10:28:15;16.80;99.90
22161;DHT22;49035;48.812;11.762;2023-09-19T10:30:46;17.00;99.90
22161;DHT22;49035;48.812;11.762;2023-09-19T10:33:17;17.50;99.90
22161;DHT22;49035;48.812;11.762;2023-09-19T10:35:46;17.90;99.90
22161;DHT22;49035;48.812;11.762;2023-09-19T10:38:13;18.40;99.90
22161;DHT22;49035;48.812;11.762;2023-09-19T10:40:40;18.80;99.90
22161;DHT22;49035;48.812;11.762;2023-09-19T10:43:16;19.20;99.90
22161;DHT22;49035;48.812;11.762;2023-09-19T10:45:47;19.60;99.90
22161;DHT22;49035;48.812;11.762;2023-09-19T10:48:16;19.90;99.90
22161;DHT22;49035;48.812;11.762;2023-09-19T10:51:05;19.90;99.90
22161;DHT22;49035;48.812;11.762;2023-09-19T10:53:43;20.30;99.90
22161;DHT22;49035;48.812;11.762;2023-09-19T10:56:11;20.60;99.90
22161;DHT22;49035;48.812;11.762;2023-09-19T10:58:43;20.60;99.90
22161;DHT22;49035;48.812;11.762;2023-09-19T11:01:11;20.40;99.90
22161;DHT22;49035;48.812;11.762;2023-09-19T11:03:43;20.50;99.90
22161;DHT22;49035;48.812;11.762;2023-09-19T11:09:04;20.60;99.90
22161;DHT22;49035;48.812;11.762;2023-09-19T11:11:46;20.30;99.90
22161;DHT22;49035;48.812;11.762;2023-09-19T11:30:40;19.80;99.90
22161;DHT22;49035;48.812;11.762;2023-09-19T11:33:20;19.90;99.90
22161;DHT22;49035;48.812;11.762;2023-09-19T11:47:08;20.80;99.90
22161;DHT22;49035;48.812;11.762;2023-09-19T11:49:40;20.90;99.90
22161;DHT22;49035;48.812;11.762;2023-09-19T11:52:06;21.00;99.90
22161;DHT22;49035;48.812;11.762;2023-09-19T11:54:34;21.70;99.90
22161;DHT22;49035;48.812;11.762;2023-09-19T11:57:02;22.30;99.90
22161;DHT22;49035;48.812;11.762;2023-09-19T11:59:29;22.80;99.90
22161;DHT22;49035;48.812;11.762;2023-09-19T12:02:05;23.00;99.90
22161;DHT22;49035;48.812;11.762;2023-09-19T12:04:43;22.90;99.90
22161;DHT22;49035;48.812;11.762;2023-09-19T12:07:18;23.10;99.90
22161;DHT22;49035;48.812;11.762;2023-09-19T12:10:03;23.40;99.90
22161;DHT22;49035;48.812;11.762;2023-09-19T12:12:30;23.30;98.90
22161;DHT22;49035;48.812;11.762;2023-09-19T12:14:57;22.70;96.60
22161;DHT22;49035;48.812;11.762;2023-09-19T12:17:46;22.40;99.90
22161;DHT22;49035;48.812;11.762;2023-09-19T12:20:13;21.90;99.90
22161;DHT22;49035;48.812;11.762;2023-09-19T12:22:43;22.40;99.60
22161;DHT22;49035;48.812;11.762;2023-09-19T12:25:09;22.10;97.80
22161;DHT22;49035;48.812;11.762;2023-09-19T12:27:49;21.30;97.80
22161;DHT22;49035;48.812;11.762;2023-09-19T12:30:18;20.80;99.90
22161;DHT22;49035;48.812;11.762;2023-09-19T12:32:46;20.70;99.90
22161;DHT22;49035;48.812;11.762;2023-09-19T12:35:31;20.90;99.90
22161;DHT22;49035;48.812;11.762;2023-09-19T12:38:00;21.60;99.70
22161;DHT22;49035;48.812;11.762;2023-09-19T12:40:26;21.90;99.90
22161;DHT22;49035;48.812;11.762;2023-09-19T12:42:59;21.70;99.10
22161;DHT22;49035;48.812;11.762;2023-09-19T12:45:25;21.50;99.90
22161;DHT22;49035;48.812;11.762;2023-09-19T12:51:07;20.70;99.90
22161;DHT22;49035;48.812;11.762;2023-09-19T12:56:06;21.30;99.90
22161;DHT22;49035;48.812;11.762;2023-09-19T12:58:34;21.40;99.90
22161;DHT22;49035;48.812;11.762;2023-09-19T13:01:00;21.80;99.90
22161;DHT22;49035;48.812;11.762;2023-09-19T13:03:30;22.00;99.90
22161;DHT22;49035;48.812;11.762;2023-09-19T13:06:03;22.00;98.70
22161;DHT22;49035;48.812;11.762;2023-09-19T13:08:38;22.00;99.90
22161;DHT22;49035;48.812;11.762;2023-09-19T13:13:33;22.40;99.90
22161;DHT22;49035;48.812;11.762;2023-09-19T13:16:02;22.00;99.10
22161;DHT22;49035;48.812;11.762;2023-09-19T13:18:28;22.10;99.90
22161;DHT22;49035;48.812;11.762;2023-09-19T13:21:11;22.40;99.90
22161;DHT22;49035;48.812;11.762;2023-09-19T13:23:54;22.30;98.60
22161;DHT22;49035;48.812;11.762;2023-09-19T13:26:25;22.10;97.60
22161;DHT22;49035;48.812;11.762;2023-09-19T13:28:50;21.40;99.00
22161;DHT22;49035;48.812;11.762;2023-09-19T13:31:16;21.20;98.80
22161;DHT22;49035;48.812;11.762;2023-09-19T13:33:46;21.20;99.40
22161;DHT22;49035;48.812;11.762;2023-09-19T13:36:13;21.10;99.40
22161;DHT22;49035;48.812;11.762;2023-09-19T13:38:42;21.10;99.90
22161;DHT22;49035;48.812;11.762;2023-09-19T13:41:12;21.10;99.30
22161;DHT22;49035;48.812;11.762;2023-09-19T13:43:38;21.10;99.90
22161;DHT22;49035;48.812;11.762;2023-09-19T13:46:07;21.20;99.60
22161;DHT22;49035;48.812;11.762;2023-09-19T13:48:33;21.10;99.10
22161;DHT22;49035;48.812;11.762;2023-09-19T13:51:01;21.00;99.90
22161;DHT22;49035;48.812;11.762;2023-09-19T13:53:27;21.00;99.90
22161;DHT22;49035;48.812;11.762;2023-09-19T13:55:52;20.90;99.90
22161;DHT22;49035;48.812;11.762;2023-09-19T13:58:18;20.90;99.90
22161;DHT22;49035;48.812;11.762;2023-09-19T14:00:44;21.10;99.90
22161;DHT22;49035;48.812;11.762;2023-09-19T14:03:09;21.10;98.80
22161;DHT22;49035;48.812;11.762;2023-09-19T14:05:36;21.30;99.90
22161;DHT22;49035;48.812;11.762;2023-09-19T14:08:03;21.50;99.70
22161;DHT22;49035;48.812;11.762;2023-09-19T14:10:29;21.70;98.20
22161;DHT22;49035;48.812;11.762;2023-09-19T14:12:57;21.50;97.40
22161;DHT22;49035;48.812;11.762;2023-09-19T14:15:25;21.50;96.00
22161;DHT22;49035;48.812;11.762;2023-09-19T14:17:56;21.50;98.10
22161;DHT22;49035;48.812;11.762;2023-09-19T14:20:22;21.60;95.60
22161;DHT22;49035;48.812;11.762;2023-09-19T14:22:48;21.80;96.00
22161;DHT22;49035;48.812;11.762;2023-09-19T14:25:14;22.00;96.20
22161;DHT22;49035;48.812;11.762;2023-09-19T14:27:39;22.20;94.90
22161;DHT22;49035;48.812;11.762;2023-09-19T14:30:07;22.40;94.90
22161;DHT22;49035;48.812;11.762;2023-09-19T14:32:34;22.50;92.90
22161;DHT22;49035;48.812;11.762;2023-09-19T14:35:01;22.50;92.30
22161;DHT22;49035;48.812;11.762;2023-09-19T14:37:27;22.40;92.50
22161;DHT22;49035;48.812;11.762;2023-09-19T14:39:53;22.30;92.40
22161;DHT22;49035;48.812;11.762;2023-09-19T14:42:20;22.30;91.50
22161;DHT22;49035;48.812;11.762;2023-09-19T14:44:45;22.20;92.50
22161;DHT22;49035;48.812;11.762;2023-09-19T14:47:12;22.10;91.30
22161;DHT22;49035;48.812;11.762;2023-09-19T14:49:38;22.20;91.90
22161;DHT22;49035;48.812;11.762;2023-09-19T14:52:07;22.30;90.70
22161;DHT22;49035;48.812;11.762;2023-09-19T14:54:33;22.20;91.30
22161;DHT22;49035;48.812;11.762;2023-09-19T14:56:59;22.10;92.60
22161;DHT22;49035;48.812;11.762;2023-09-19T14:59:34;22.10;91.80
22161;DHT22;49035;48.812;11.762;2023-09-19T15:02:03;22.20;91.70
22161;DHT22;49035;48.812;11.762;2023-09-19T15:04:29;22.10;92.40
22161;DHT22;49035;48.812;11.762;2023-09-19T15:06:55;22.20;90.80
22161;DHT22;49035;48.812;11.762;2023-09-19T15:09:24;21.80;91.70
22161;DHT22;49035;48.812;11.762;2023-09-19T15:11:52;21.70;92.50
22161;DHT22;49035;48.812;11.762;2023-09-19T15:14:18;21.70;91.70
22161;DHT22;49035;48.812;11.762;2023-09-19T15:16:43;21.50;92.20
22161;DHT22;49035;48.812;11.762;2023-09-19T15:19:09;21.10;92.90
22161;DHT22;49035;48.812;11.762;2023-09-19T15:21:36;21.00;94.00
22161;DHT22;49035;48.812;11.762;2023-09-19T15:24:03;21.00;94.10
22161;DHT22;49035;48.812;11.762;2023-09-19T15:26:29;20.90;94.30
22161;DHT22;49035;48.812;11.762;2023-09-19T15:28:55;20.80;94.20
22161;DHT22;49035;48.812;11.762;2023-09-19T15:31:22;20.60;93.20
22161;DHT22;49035;48.812;11.762;2023-09-19T15:33:47;20.60;94.50
22161;DHT22;49035;48.812;11.762;2023-09-19T15:36:14;20.60;94.50
22161;DHT22;49035;48.812;11.762;2023-09-19T15:39:00;20.50;94.70
22161;DHT22;49035;48.812;11.762;2023-09-19T15:41:31;20.60;95.60
22161;DHT22;49035;48.812;11.762;2023-09-19T15:43:57;20.50;95.50
22161;DHT22;49035;48.812;11.762;2023-09-19T15:46:25;20.50;96.30
22161;DHT22;49035;48.812;11.762;2023-09-19T15:48:56;20.50;95.10
22161;DHT22;49035;48.812;11.762;2023-09-19T15:51:22;20.40;95.20
22161;DHT22;49035;48.812;11.762;2023-09-19T15:53:49;20.40;95.00
22161;DHT22;49035;48.812;11.762;2023-09-19T15:56:16;20.40;95.00
22161;DHT22;49035;48.812;11.762;2023-09-19T15:58:44;20.30;95.20
22161;DHT22;49035;48.812;11.762;2023-09-19T16:01:11;20.30;96.20
22161;DHT22;49035;48.812;11.762;2023-09-19T16:03:37;20.20;96.10
22161;DHT22;49035;48.812;11.762;2023-09-19T16:06:13;20.10;96.40
22161;DHT22;49035;48.812;11.762;2023-09-19T16:08:40;20.00;96.60
22161;DHT22;49035;48.812;11.762;2023-09-19T16:11:05;20.00;96.80
22161;DHT22;49035;48.812;11.762;2023-09-19T16:13:31;19.90;96.90